Time;durP1;ratioP1;P1;durP2;ratioP2;P2;SDS_P1;SDS_P2;PMS_P1;PMS_P2;Temp;Humidity;BMP_temperature;BMP_pressure;BME280_temperature;BME280_humidity;BME280_pressure;Samples;Min_cycle;Max_cycle;Signal;HPM_P1;HPM_P2
2022/07/09 00:02:07;;;;;;;40.40;3.75;;;;;;;52.47;4.53;100859.97;5038934;28;20060;-59
2022/07/09 00:04:34;;;;;;;15.10;2.28;;;;;;;50.89;4.80;100857.03;5038072;28;20022;-59
2022/07/09 00:07:00;;;;;;;26.15;2.42;;;;;;;50.38;5.05;100863.38;5040633;28;20120;-59
2022/07/09 00:09:27;;;;;;;12.73;1.80;;;;;;;49.97;6.14;100857.63;5049991;28;20368;-59
2022/07/09 00:11:54;;;;;;;10.38;1.90;;;;;;;50.06;6.42;100854.41;5044547;28;20033;-58
2022/07/09 00:14:20;;;;;;;59.22;4.70;;;;;;;51.05;5.51;100844.50;5039658;28;20016;-61
2022/07/09 00:16:47;;;;;;;34.58;3.10;;;;;;;51.28;5.80;100863.13;5041847;28;20117;-61
2022/07/09 00:19:14;;;;;;;26.67;2.63;;;;;;;50.97;5.65;100852.97;5035650;28;20026;-61
2022/07/09 00:21:41;;;;;;;143.43;8.80;;;;;;;49.61;5.60;100848.94;5038606;28;20136;-60
2022/07/09 00:24:07;;;;;;;13.27;2.13;;;;;;;48.68;6.60;100849.63;5035611;28;20492;-60
2022/07/09 00:26:34;;;;;;;22.88;2.60;;;;;;;48.79;6.46;100853.75;5035446;28;20041;-60
2022/07/09 00:29:01;;;;;;;10.82;2.17;;;;;;;49.42;6.14;100853.03;5034349;28;20037;-60
2022/07/09 00:31:28;;;;;;;10.65;1.95;;;;;;;49.76;5.92;100839.94;5036811;28;20045;-59
2022/07/09 00:33:56;;;;;;;17.00;2.70;;;;;;;49.52;5.91;100852.16;5036071;28;20026;-60
2022/07/09 00:36:23;;;;;;;11.70;2.00;;;;;;;49.39;6.40;100836.75;5041015;28;20051;-59
2022/07/09 00:38:49;;;;;;;11.35;2.38;;;;;;;49.88;5.87;100844.28;5049603;28;20056;-60
2022/07/09 00:41:16;;;;;;;9.73;2.40;;;;;;;49.36;6.30;100843.59;5048206;28;20060;-60
2022/07/09 00:43:50;;;;;;;16.60;2.35;;;;;;;49.25;6.40;100839.44;5042689;28;20083;-61
2022/07/09 00:46:17;;;;;;;17.75;2.33;;;;;;;49.14;6.92;100841.56;5046939;28;20112;-60
2022/07/09 00:48:44;;;;;;;12.38;2.15;;;;;;;48.92;6.25;100836.66;5041629;28;20052;-59
2022/07/09 00:51:14;;;;;;;11.52;2.00;;;;;;;48.91;6.21;100846.66;5047916;28;20033;-61
2022/07/09 00:53:44;;;;;;;17.77;2.45;;;;;;;47.03;7.43;100846.72;5051358;28;20438;-60
2022/07/09 00:56:13;;;;;;;9.38;2.03;;;;;;;47.24;7.57;100842.41;5047570;28;20029;-60
2022/07/09 00:58:42;;;;;;;14.90;2.00;;;;;;;46.88;7.23;100841.97;5048482;28;20029;-60
2022/07/09 01:01:09;;;;;;;14.32;2.22;;;;;;;46.77;8.13;100843.97;5050942;28;20100;-60
2022/07/09 01:03:35;;;;;;;13.73;2.20;;;;;;;47.23;7.61;100844.47;5047667;28;20033;-60
2022/07/09 01:06:02;;;;;;;11.27;2.13;;;;;;;46.91;7.78;100843.00;5048968;28;20025;-61
2022/07/09 01:08:29;;;;;;;11.25;2.17;;;;;;;47.40;7.08;100846.59;5046673;28;20187;-60
2022/07/09 01:10:56;;;;;;;220.50;8.88;;;;;;;47.15;7.19;100848.38;5044555;28;20025;-61
2022/07/09 01:13:22;;;;;;;11.55;2.63;;;;;;;46.89;7.31;100837.00;5047785;28;20440;-60
2022/07/09 01:15:49;;;;;;;12.30;2.20;;;;;;;47.03;7.07;100833.09;5047741;28;20155;-60
2022/07/09 01:18:16;;;;;;;19.25;2.30;;;;;;;47.05;7.31;100844.13;5047200;28;20029;-60
2022/07/09 01:20:42;;;;;;;20.85;2.40;;;;;;;46.79;8.03;100841.38;5048287;28;20471;-60
2022/07/09 01:23:09;;;;;;;23.38;2.55;;;;;;;46.66;7.69;100839.69;5044855;28;20034;-60
2022/07/09 01:25:46;;;;;;;15.48;2.33;;;;;;;46.03;8.53;100842.63;5048349;28;20380;-60
2022/07/09 01:28:12;;;;;;;7.35;1.80;;;;;;;46.10;8.03;100846.34;5048986;28;20167;-60
2022/07/09 01:30:41;;;;;;;24.42;2.75;;;;;;;45.92;8.39;100853.19;5046849;28;20039;-59
2022/07/09 01:33:08;;;;;;;15.50;2.13;;;;;;;45.85;8.29;100848.72;5047409;28;20383;-60
2022/07/09 01:35:34;;;;;;;16.13;2.55;;;;;;;45.81;8.41;100853.91;5048690;28;20056;-60
2022/07/09 01:38:01;;;;;;;16.83;2.25;;;;;;;45.46;8.72;100865.53;5049823;28;20037;-60
2022/07/09 01:40:28;;;;;;;11.68;2.80;;;;;;;45.37;8.64;100860.72;5046772;28;20040;-61
2022/07/09 01:42:56;;;;;;;15.48;2.35;;;;;;;45.20;8.58;100857.59;5048319;28;20037;-60
2022/07/09 01:45:23;;;;;;;12.52;2.50;;;;;;;44.85;8.91;100860.50;5045176;28;20044;-60
2022/07/09 01:47:50;;;;;;;10.52;2.20;;;;;;;44.39;9.15;100863.19;5048118;28;20057;-60
2022/07/09 01:50:16;;;;;;;16.35;3.00;;;;;;;44.29;9.32;100867.44;5048467;28;20583;-60
2022/07/09 01:52:43;;;;;;;14.35;2.05;;;;;;;43.91;9.38;100857.66;5046815;28;20395;-60
2022/07/09 01:55:10;;;;;;;28.23;2.70;;;;;;;43.75;9.27;100869.59;5048851;28;20021;-61
2022/07/09 01:57:37;;;;;;;12.15;2.22;;;;;;;43.65;9.67;100874.63;5053136;28;20090;-60
2022/07/09 02:00:07;;;;;;;18.90;2.75;;;;;;;43.46;9.86;100869.56;5051465;28;20071;-60
2022/07/09 02:02:40;;;;;;;12.73;2.60;;;;;;;43.14;10.21;100863.41;5053267;28;20052;-60
2022/07/09 02:05:07;;;;;;;23.67;2.83;;;;;;;43.00;10.25;100872.72;5052879;28;20558;-60
2022/07/09 02:07:35;;;;;;;22.00;3.22;;;;;;;43.03;10.46;100874.59;5052605;28;20495;-60
2022/07/09 02:10:05;;;;;;;16.85;2.42;;;;;;;42.86;10.45;100876.25;5053278;28;20029;-60
2022/07/09 02:12:32;;;;;;;16.45;2.30;;;;;;;42.64;10.25;100870.81;5053767;28;20036;-60
2022/07/09 02:14:59;;;;;;;10.63;2.30;;;;;;;42.47;10.23;100874.03;5050397;28;20052;-60
2022/07/09 02:17:25;;;;;;;15.48;2.17;;;;;;;42.04;11.17;100874.50;5053178;28;20112;-61
2022/07/09 02:19:52;;;;;;;14.02;2.30;;;;;;;42.01;11.35;100881.13;5053178;28;20021;-60
2022/07/09 02:22:19;;;;;;;13.15;2.65;;;;;;;41.66;11.17;100875.03;5052742;28;20111;-59
2022/07/09 02:24:45;;;;;;;13.40;2.30;;;;;;;41.56;10.95;100885.63;5049954;28;20052;-60
2022/07/09 02:27:12;;;;;;;21.52;2.83;;;;;;;41.37;11.31;100886.88;5052912;28;20028;-60
2022/07/09 02:29:40;;;;;;;13.70;2.15;;;;;;;41.13;11.53;100892.38;5051021;28;20058;-60
2022/07/09 02:32:10;;;;;;;41.38;3.63;;;;;;;40.75;11.82;100897.13;5053360;28;20487;-60
2022/07/09 02:34:37;;;;;;;18.80;3.13;;;;;;;40.55;12.36;100898.78;5050003;28;20029;-60
2022/07/09 02:37:07;;;;;;;19.48;3.00;;;;;;;40.20;12.35;100898.09;5053066;28;20033;-61
2022/07/09 02:39:34;;;;;;;22.60;3.00;;;;;;;39.96;12.85;100900.66;5050848;28;20131;-59
2022/07/09 02:42:01;;;;;;;45.70;5.07;;;;;;;39.76;12.96;100898.09;5053957;28;20029;-61
2022/07/09 02:44:28;;;;;;;14.48;2.38;;;;;;;39.68;12.74;100906.13;5054194;28;20031;-62
2022/07/09 02:46:54;;;;;;;14.98;2.50;;;;;;;39.61;13.06;100902.72;5053626;28;20479;-60
2022/07/09 02:49:23;;;;;;;36.85;3.22;;;;;;;39.25;13.36;100918.97;5051673;28;20036;-60
2022/07/09 02:51:49;;;;;;;20.98;2.88;;;;;;;38.92;13.37;100911.94;5067347;28;20391;-60
2022/07/09 02:54:16;;;;;;;25.00;3.47;;;;;;;38.73;13.87;100916.59;5050734;28;20114;-61
2022/07/09 02:56:43;;;;;;;18.88;3.55;;;;;;;38.50;13.90;100914.06;5033453;28;20067;-60
2022/07/09 02:59:10;;;;;;;22.08;3.38;;;;;;;38.34;14.30;100917.78;5051801;28;20028;-61
2022/07/09 03:01:36;;;;;;;17.30;3.42;;;;;;;38.02;14.06;100919.50;5051629;28;20483;-60
2022/07/09 03:04:03;;;;;;;25.45;3.67;;;;;;;37.78;14.78;100930.31;5053424;28;20402;-61
2022/07/09 03:06:30;;;;;;;28.77;4.30;;;;;;;37.67;14.72;100937.47;5052425;28;20040;-61
2022/07/09 03:08:56;;;;;;;22.95;4.20;;;;;;;37.47;15.12;100941.25;5053339;28;20126;-59
2022/07/09 03:11:23;;;;;;;26.70;4.13;;;;;;;37.37;15.12;100941.53;5053399;28;20418;-59
2022/07/09 03:13:49;;;;;;;25.30;4.18;;;;;;;37.25;15.47;100943.00;5053436;28;20032;-59
2022/07/09 03:16:16;;;;;;;36.67;4.72;;;;;;;37.14;15.82;100942.47;5052053;28;20432;-59
2022/07/09 03:18:43;;;;;;;37.13;5.50;;;;;;;36.92;15.70;100945.81;5046093;28;20486;-59
2022/07/09 03:21:11;;;;;;;34.85;4.90;;;;;;;36.90;15.64;100958.84;5040417;28;20594;-61
2022/07/09 03:23:39;;;;;;;38.65;4.85;;;;;;;36.82;16.06;100960.25;5041370;28;20022;-59
2022/07/09 03:26:06;;;;;;;19.75;3.80;;;;;;;37.39;14.15;100959.69;5042603;28;20067;-60
2022/07/09 03:28:34;;;;;;;17.27;4.57;;;;;;;37.76;12.62;100963.22;5041887;28;20029;-60
2022/07/09 03:31:01;;;;;;;15.27;3.60;;;;;;;37.96;13.79;100965.91;5045067;28;20035;-58
2022/07/09 03:33:28;;;;;;;20.33;4.40;;;;;;;38.05;14.16;100966.03;5047336;28;20104;-61
2022/07/09 03:35:55;;;;;;;14.93;2.92;;;;;;;38.22;13.71;100972.50;5046814;28;20041;-59
2022/07/09 03:38:22;;;;;;;14.88;3.10;;;;;;;38.04;13.68;100978.66;5045644;28;20112;-61
2022/07/09 03:40:50;;;;;;;11.93;3.38;;;;;;;37.86;14.09;100990.50;5039922;28;20052;-61
2022/07/09 03:43:17;;;;;;;14.65;3.03;;;;;;;37.62;14.25;100981.38;5044504;28;20021;-60
2022/07/09 03:45:44;;;;;;;17.00;6.90;;;;;;;37.45;14.40;100994.78;5042342;28;20079;-60
2022/07/09 03:48:11;;;;;;;18.25;7.05;;;;;;;37.24;14.53;100995.28;5041067;28;20021;-62
2022/07/09 03:50:37;;;;;;;17.33;3.70;;;;;;;37.18;14.10;101005.56;5044037;28;20048;-60
2022/07/09 03:53:04;;;;;;;21.08;13.02;;;;;;;36.88;14.70;100996.13;5047063;28;20087;-61
2022/07/09 03:55:31;;;;;;;32.35;22.33;;;;;;;36.74;14.30;101004.91;5043733;28;20040;-59
2022/07/09 03:57:57;;;;;;;21.17;9.70;;;;;;;36.64;14.34;101020.09;5048621;28;20068;-59
2022/07/09 04:00:25;;;;;;;19.92;11.07;;;;;;;36.53;13.99;101023.16;5046177;28;20037;-59
2022/07/09 04:02:51;;;;;;;14.73;8.75;;;;;;;36.29;14.39;101022.41;5037932;28;20033;-59
2022/07/09 04:05:21;;;;;;;21.88;5.18;;;;;;;36.19;14.52;101029.06;5040348;28;20076;-59
2022/07/09 04:07:48;;;;;;;15.25;3.45;;;;;;;36.05;14.56;101023.66;5044516;28;20037;-60
2022/07/09 04:10:15;;;;;;;19.27;6.70;;;;;;;35.85;14.45;101031.31;5034489;28;20051;-61
2022/07/09 04:12:41;;;;;;;32.63;23.50;;;;;;;35.88;14.11;101028.41;5038406;28;20122;-62
2022/07/09 04:15:08;;;;;;;37.58;27.58;;;;;;;35.72;14.58;101045.25;5040948;28;20415;-61
2022/07/09 04:17:35;;;;;;;21.77;7.97;;;;;;;35.69;14.21;101038.41;5039044;28;20021;-60
2022/07/09 04:20:02;;;;;;;42.55;30.65;;;;;;;35.63;14.43;101045.81;5045382;28;20025;-62
2022/07/09 04:22:29;;;;;;;23.05;13.70;;;;;;;35.59;14.64;101047.09;5043669;28;20060;-59
2022/07/09 04:24:56;;;;;;;19.80;10.70;;;;;;;35.56;14.52;101048.75;5039771;28;20099;-60
2022/07/09 04:27:22;;;;;;;18.63;9.10;;;;;;;35.53;14.31;101041.13;5040644;28;20051;-59
2022/07/09 04:29:49;;;;;;;17.30;6.47;;;;;;;35.51;14.14;101049.22;5042905;28;20383;-60
2022/07/09 04:32:16;;;;;;;19.88;5.75;;;;;;;35.40;14.54;101063.53;5043637;28;20061;-60
2022/07/09 04:34:43;;;;;;;17.60;4.10;;;;;;;35.19;14.98;101069.50;5043599;28;20391;-61
2022/07/09 04:37:09;;;;;;;15.70;3.95;;;;;;;35.17;14.48;101088.06;5047918;28;20038;-61
2022/07/09 04:39:36;;;;;;;17.40;3.25;;;;;;;35.07;14.88;101093.47;5048644;28;20049;-59
2022/07/09 04:42:03;;;;;;;20.73;3.50;;;;;;;35.08;15.13;101100.72;5045806;28;20050;-59
2022/07/09 04:44:30;;;;;;;16.15;3.33;;;;;;;35.01;14.61;101103.63;5045494;28;20670;-60
2022/07/09 04:46:56;;;;;;;14.70;2.88;;;;;;;34.84;14.50;101104.63;5049050;28;20075;-61
2022/07/09 04:49:24;;;;;;;13.88;2.72;;;;;;;35.26;14.02;101102.50;5042730;28;20033;-61
2022/07/09 04:51:52;;;;;;;14.32;2.50;;;;;;;35.14;14.15;101090.53;5044816;28;20745;-60
2022/07/09 04:54:20;;;;;;;11.95;5.20;;;;;;;34.82;14.64;101099.38;5040484;28;20033;-60
2022/07/09 04:56:47;;;;;;;20.40;4.53;;;;;;;34.60;14.89;101109.34;5047928;28;20017;-60
2022/07/09 04:59:15;;;;;;;12.20;4.40;;;;;;;34.26;14.87;101109.25;5044693;28;20021;-60
2022/07/09 05:01:45;;;;;;;45.92;6.00;;;;;;;34.16;15.50;101121.47;5045275;28;20471;-60
2022/07/09 05:04:12;;;;;;;16.88;4.60;;;;;;;34.12;14.89;101110.22;5043488;28;20059;-59
2022/07/09 05:06:39;;;;;;;27.70;3.10;;;;;;;34.38;14.92;101117.25;5047137;28;20104;-60
2022/07/09 05:09:08;;;;;;;23.67;3.38;;;;;;;34.36;15.31;101105.56;5047460;28;20041;-60
2022/07/09 05:11:35;;;;;;;19.67;3.25;;;;;;;34.30;15.07;101115.69;5043957;28;20442;-60
2022/07/09 05:14:02;;;;;;;19.40;4.45;;;;;;;34.43;14.75;101110.31;5045496;28;20039;-61
2022/07/09 05:16:28;;;;;;;21.02;5.20;;;;;;;34.32;14.89;101101.16;5044468;28;20086;-61
2022/07/09 05:18:55;;;;;;;14.18;3.33;;;;;;;34.29;15.09;101110.44;5043359;28;20036;-60
2022/07/09 05:21:22;;;;;;;14.57;2.60;;;;;;;34.50;14.96;101113.91;5046674;28;20021;-59
2022/07/09 05:23:49;;;;;;;11.27;2.53;;;;;;;34.50;14.74;101107.44;5049280;28;20032;-60
2022/07/09 05:26:15;;;;;;;15.77;2.53;;;;;;;34.37;14.97;101110.00;5047929;28;20036;-60
2022/07/09 05:28:42;;;;;;;9.02;2.38;;;;;;;34.31;15.11;101111.66;5051108;28;20028;-61
2022/07/09 05:31:09;;;;;;;12.25;3.10;;;;;;;34.24;15.12;101123.00;5054151;28;20697;-59
2022/07/09 05:33:35;;;;;;;11.50;3.40;;;;;;;34.16;15.16;101110.19;5053925;28;20388;-60
2022/07/09 05:36:02;;;;;;;13.23;3.20;;;;;;;34.10;15.46;101120.28;5053232;28;20387;-59
2022/07/09 05:38:29;;;;;;;9.05;2.10;;;;;;;34.10;16.08;101117.47;5054883;28;20039;-60
2022/07/09 05:40:57;;;;;;;22.80;2.15;;;;;;;33.97;16.38;101113.56;5055139;28;20033;-60
2022/07/09 05:43:24;;;;;;;11.57;2.00;;;;;;;33.80;16.50;101120.94;5055123;28;20037;-59
2022/07/09 05:45:50;;;;;;;14.35;2.08;;;;;;;33.66;17.22;101121.84;5055417;28;20025;-59
2022/07/09 05:48:17;;;;;;;10.02;2.10;;;;;;;33.48;17.46;101121.16;5055075;28;20132;-60
2022/07/09 05:50:43;;;;;;;14.25;2.05;;;;;;;33.43;17.74;101122.41;5055018;28;20531;-60
2022/07/09 05:53:10;;;;;;;10.82;2.22;;;;;;;33.33;18.05;101118.41;5055141;28;20033;-59
2022/07/09 05:55:37;;;;;;;11.45;2.10;;;;;;;33.24;18.35;101117.25;5054682;28;20025;-60
2022/07/09 05:58:04;;;;;;;6.95;1.88;;;;;;;33.11;18.06;101119.72;5055016;28;20041;-61
2022/07/09 06:00:30;;;;;;;12.38;2.30;;;;;;;32.98;18.51;101122.16;5054931;28;20017;-59
2022/07/09 06:02:57;;;;;;;14.45;2.28;;;;;;;32.88;18.71;101122.22;5054802;28;20083;-60
2022/07/09 06:05:24;;;;;;;10.18;2.00;;;;;;;32.76;18.38;101127.06;5054586;28;20032;-60
2022/07/09 06:07:50;;;;;;;12.40;2.33;;;;;;;32.65;18.83;101131.91;5054584;28;20172;-61
2022/07/09 06:10:17;;;;;;;14.07;2.17;;;;;;;32.50;18.70;101129.53;5054736;28;20082;-60
2022/07/09 06:12:44;;;;;;;13.63;2.67;;;;;;;32.38;19.08;101128.75;5070254;28;20484;-61
2022/07/09 06:15:11;;;;;;;14.48;2.50;;;;;;;32.25;18.77;101126.72;5070250;28;20059;-60
2022/07/09 06:17:38;;;;;;;12.57;2.33;;;;;;;32.16;19.36;101121.53;5054396;28;20087;-60
2022/07/09 06:20:06;;;;;;;13.25;2.53;;;;;;;32.16;19.27;101116.72;5054635;28;20029;-60
2022/07/09 06:22:33;;;;;;;15.50;3.03;;;;;;;32.07;19.43;101113.47;5054520;28;20056;-59
2022/07/09 06:24:59;;;;;;;19.95;4.72;;;;;;;31.98;19.25;101112.28;5046658;28;20025;-60
2022/07/09 06:27:28;;;;;;;21.85;2.90;;;;;;;31.96;18.81;101106.25;5040739;28;20052;-61
2022/07/09 06:29:55;;;;;;;14.23;2.80;;;;;;;31.89;19.45;101103.44;5038451;28;20573;-61
2022/07/09 06:32:22;;;;;;;15.23;3.65;;;;;;;31.86;19.39;101103.03;5041659;28;20037;-60
2022/07/09 06:34:48;;;;;;;13.00;2.40;;;;;;;31.83;19.08;101108.69;5041206;28;20023;-59
2022/07/09 06:37:15;;;;;;;18.10;3.10;;;;;;;31.80;19.36;101109.47;5043449;28;20042;-61
2022/07/09 06:39:44;;;;;;;44.08;4.10;;;;;;;31.82;19.11;101107.06;5027789;28;20092;-60
2022/07/09 06:42:12;;;;;;;7.80;2.35;;;;;;;31.79;19.43;101102.25;5038789;28;20033;-60
2022/07/09 06:44:44;;;;;;;18.42;3.95;;;;;;;31.65;19.42;101097.38;5037895;28;20032;-59
2022/07/09 06:47:12;;;;;;;34.63;3.40;;;;;;;31.61;19.28;101095.78;5037238;28;20040;-60
2022/07/09 06:49:39;;;;;;;14.52;2.40;;;;;;;31.55;19.65;101101.78;5037345;28;20033;-59
2022/07/09 06:52:07;;;;;;;13.85;1.85;;;;;;;31.58;19.26;101098.16;5031481;28;20033;-60
2022/07/09 06:54:35;;;;;;;8.35;1.92;;;;;;;31.57;19.43;101099.38;5044679;28;20025;-59
2022/07/09 06:57:03;;;;;;;12.95;3.10;;;;;;;31.48;19.16;101104.59;5045692;28;20048;-61
2022/07/09 06:59:31;;;;;;;12.60;2.08;;;;;;;31.40;19.12;101100.13;5062711;28;20502;-60
2022/07/09 07:01:57;;;;;;;22.13;2.50;;;;;;;31.39;19.57;101111.78;5046460;28;20043;-61
2022/07/09 07:04:25;;;;;;;13.65;2.20;;;;;;;31.32;19.38;101106.16;5039627;28;20053;-59
2022/07/09 07:06:51;;;;;;;12.23;2.28;;;;;;;31.22;19.42;101113.34;5050450;28;20554;-59
2022/07/09 07:09:18;;;;;;;11.15;2.25;;;;;;;31.16;19.44;101115.69;5044992;28;20033;-61
2022/07/09 07:11:46;;;;;;;13.35;2.10;;;;;;;31.09;19.62;101110.06;5042519;28;20055;-60
2022/07/09 07:14:12;;;;;;;14.35;2.50;;;;;;;31.10;19.81;101116.50;5044170;28;20040;-60
2022/07/09 07:16:39;;;;;;;15.82;2.53;;;;;;;31.10;19.48;101116.50;5044469;28;20059;-60
2022/07/09 07:19:06;;;;;;;12.77;2.40;;;;;;;31.01;19.47;101110.41;5036990;28;20037;-60
2022/07/09 07:21:33;;;;;;;33.08;3.35;;;;;;;30.91;19.31;101101.56;5044040;28;20071;-60
2022/07/09 07:24:00;;;;;;;10.10;2.92;;;;;;;30.91;19.62;101107.19;5041706;28;20021;-59
2022/07/09 07:26:26;;;;;;;15.00;2.58;;;;;;;30.91;19.15;101109.19;5047767;28;20495;-59
2022/07/09 07:28:54;;;;;;;18.35;4.20;;;;;;;30.74;19.76;101110.72;5043765;28;20048;-59
2022/07/09 07:31:22;;;;;;;10.88;2.13;;;;;;;30.55;19.55;101108.97;5048421;28;20075;-60
2022/07/09 07:33:49;;;;;;;12.02;2.30;;;;;;;30.75;19.19;101106.72;5044713;28;20032;-60
2022/07/09 07:36:16;;;;;;;20.23;2.60;;;;;;;30.71;19.34;101103.09;5046139;28;20037;-59
2022/07/09 07:38:45;;;;;;;17.38;1.85;;;;;;;30.79;19.17;101096.31;5042152;28;20029;-60
2022/07/09 07:41:13;;;;;;;8.95;1.70;;;;;;;30.80;19.20;101100.72;5036915;28;20553;-61
2022/07/09 07:43:40;;;;;;;7.35;1.80;;;;;;;30.76;19.13;101099.91;5039490;28;20099;-59
2022/07/09 07:46:06;;;;;;;14.23;5.85;;;;;;;30.68;18.96;101101.84;5032920;28;20112;-60
2022/07/09 07:48:35;;;;;;;10.43;5.18;;;;;;;30.76;18.68;101097.09;5045404;28;20028;-60
2022/07/09 07:51:03;;;;;;;10.73;2.28;;;;;;;30.65;18.85;101099.03;5043478;28;20034;-60
2022/07/09 07:53:33;;;;;;;8.85;1.48;;;;;;;30.66;18.78;101109.84;5046629;28;20037;-60
2022/07/09 07:56:04;;;;;;;8.85;1.70;;;;;;;30.63;18.67;101115.47;5047055;28;20111;-60
2022/07/09 07:58:31;;;;;;;8.20;1.70;;;;;;;30.63;18.43;101112.66;5043600;28;20033;-60
2022/07/09 08:00:58;;;;;;;5.35;1.48;;;;;;;30.59;18.42;101120.22;5035260;28;20033;-60
2022/07/09 08:03:25;;;;;;;11.10;1.63;;;;;;;30.41;18.58;101124.91;5042448;28;20545;-60
2022/07/09 08:05:51;;;;;;;13.43;2.72;;;;;;;30.32;19.04;101117.63;5052480;28;20033;-60
2022/07/09 08:08:18;;;;;;;13.90;2.67;;;;;;;30.14;19.52;101113.88;5051782;28;20128;-60
2022/07/09 08:10:46;;;;;;;10.20;2.28;;;;;;;29.99;19.28;101112.97;5052592;28;20071;-61
2022/07/09 08:13:12;;;;;;;6.72;2.25;;;;;;;29.98;18.93;101127.34;5052571;28;20036;-60
2022/07/09 08:15:39;;;;;;;12.40;2.42;;;;;;;29.96;18.99;101127.72;5052559;28;20036;-61
2022/07/09 08:18:08;;;;;;;33.60;2.75;;;;;;;29.91;19.12;101127.28;5052821;28;20411;-59
2022/07/09 08:20:37;;;;;;;15.70;2.30;;;;;;;29.73;19.12;101113.91;5051683;28;20427;-59
2022/07/09 08:23:04;;;;;;;10.35;1.88;;;;;;;29.65;19.14;101106.66;5052536;28;20029;-60
2022/07/09 08:25:30;;;;;;;9.75;1.63;;;;;;;29.61;19.13;101119.78;5052324;28;20029;-59
2022/07/09 08:27:57;;;;;;;6.45;1.40;;;;;;;29.58;19.02;101120.56;5052304;28;20115;-59
2022/07/09 08:30:23;;;;;;;7.03;1.30;;;;;;;29.94;18.13;101115.31;5052557;28;20029;-59
2022/07/09 08:32:50;;;;;;;6.05;1.20;;;;;;;30.08;18.10;101118.25;5052460;28;20078;-61
2022/07/09 08:35:17;;;;;;;7.20;1.48;;;;;;;30.26;17.55;101116.38;5052205;28;20518;-60
2022/07/09 08:37:43;;;;;;;6.85;1.30;;;;;;;30.43;17.44;101114.09;5050645;28;20037;-60
2022/07/09 08:40:11;;;;;;;7.50;1.40;;;;;;;30.49;17.55;101112.53;5052495;28;20041;-61
2022/07/09 08:42:38;;;;;;;11.73;1.42;;;;;;;30.46;17.62;101116.13;5052423;28;20406;-60
2022/07/09 08:45:08;;;;;;;7.28;1.40;;;;;;;30.27;17.85;101125.59;5052331;28;20561;-60
2022/07/09 08:47:35;;;;;;;12.65;1.90;;;;;;;30.21;18.24;101124.38;5051126;28;20037;-60
2022/07/09 08:50:02;;;;;;;4.25;1.05;;;;;;;30.23;18.10;101124.78;5052344;28;20112;-60
2022/07/09 08:52:29;;;;;;;5.97;1.50;;;;;;;30.18;18.36;101122.34;5052620;28;20037;-59
2022/07/09 08:54:56;;;;;;;8.82;1.52;;;;;;;30.11;18.59;101122.28;5043673;28;20373;-61
2022/07/09 08:57:22;;;;;;;5.82;1.27;;;;;;;30.05;18.64;101124.66;5043386;28;20040;-61
2022/07/09 08:59:49;;;;;;;9.35;1.20;;;;;;;30.01;18.35;101116.19;5055203;28;20116;-58
2022/07/09 09:02:19;;;;;;;5.95;1.27;;;;;;;30.02;18.37;101114.19;5052914;28;20499;-60
2022/07/09 09:04:46;;;;;;;7.25;1.70;;;;;;;30.02;18.42;101116.97;5055255;28;20094;-59
2022/07/09 09:07:17;;;;;;;9.88;1.70;;;;;;;29.99;18.18;101123.38;5055045;28;20021;-59
2022/07/09 09:09:45;;;;;;;6.53;1.30;;;;;;;29.75;18.99;101116.34;5034922;28;20491;-60
2022/07/09 09:12:13;;;;;;;8.50;1.35;;;;;;;29.54;19.87;101122.53;5035888;28;20089;-61
2022/07/09 09:14:47;;;;;;;8.60;1.33;;;;;;;29.24;20.23;101124.56;5051382;28;20037;-59
2022/07/09 09:17:14;;;;;;;4.57;1.45;;;;;;;29.30;20.21;101121.06;5035914;28;20056;-60
2022/07/09 09:19:41;;;;;;;10.82;1.90;;;;;;;29.26;20.72;101122.97;5033785;28;20071;-61
2022/07/09 09:22:09;;;;;;;7.63;1.55;;;;;;;29.14;20.75;101117.66;5033577;28;20033;-59
2022/07/09 09:24:36;;;;;;;8.55;1.30;;;;;;;29.11;20.63;101124.03;5033677;28;20477;-60
2022/07/09 09:27:03;;;;;;;5.47;1.25;;;;;;;29.03;20.87;101127.91;5038403;28;20111;-60
2022/07/09 09:29:30;;;;;;;9.75;1.48;;;;;;;28.88;20.52;101121.31;5053340;28;20033;-60
2022/07/09 09:31:56;;;;;;;8.00;1.40;;;;;;;29.11;20.23;101116.44;5053865;28;20499;-60
2022/07/09 09:34:24;;;;;;;7.25;1.17;;;;;;;29.26;19.84;101119.38;5055222;28;20033;-59
2022/07/09 09:36:54;;;;;;;13.70;1.90;;;;;;;29.42;19.12;101119.97;5055116;28;20052;-60
2022/07/09 09:39:26;;;;;;;7.32;1.63;;;;;;;29.38;19.00;101119.13;5054751;28;20033;-59
2022/07/09 09:41:55;;;;;;;9.35;1.55;;;;;;;29.30;18.79;101111.84;5037193;28;20037;-60
2022/07/09 09:44:26;;;;;;;10.20;1.90;;;;;;;29.43;19.08;101121.56;5055347;28;20032;-62
2022/07/09 09:46:54;;;;;;;6.15;1.80;;;;;;;29.37;18.73;101117.50;5055390;28;20033;-60
2022/07/09 09:49:22;;;;;;;7.32;1.75;;;;;;;29.33;18.57;101125.88;5055051;28;20043;-60
2022/07/09 09:51:56;;;;;;;5.38;1.30;;;;;;;29.32;18.49;101134.66;5053976;28;20064;-60
2022/07/09 09:54:24;;;;;;;6.75;1.30;;;;;;;29.47;18.01;101134.47;5055125;28;20063;-60
2022/07/09 09:56:51;;;;;;;4.28;1.30;;;;;;;29.48;17.18;101138.88;5055236;28;20033;-60
2022/07/09 09:59:18;;;;;;;9.32;1.38;;;;;;;29.30;17.68;101128.66;5055069;28;20029;-60
2022/07/09 10:01:45;;;;;;;4.97;1.42;;;;;;;29.28;17.40;101156.22;5054856;28;20052;-61
2022/07/09 10:04:18;;;;;;;22.70;1.63;;;;;;;29.23;17.46;101156.53;5055035;28;20029;-60
2022/07/09 10:06:45;;;;;;;8.63;1.38;;;;;;;29.58;16.67;101142.16;5054743;28;20029;-60
2022/07/09 10:09:14;;;;;;;6.28;1.05;;;;;;;29.57;16.90;101144.16;5054532;28;20381;-61
2022/07/09 10:11:46;;;;;;;5.00;1.00;;;;;;;29.53;16.31;101139.72;5054581;28;20111;-61
2022/07/09 10:14:25;;;;;;;3.97;0.98;;;;;;;29.67;16.41;101151.09;5054793;28;20095;-59
2022/07/09 10:16:52;;;;;;;10.27;1.25;;;;;;;29.51;16.41;101154.13;5054719;28;20039;-59
2022/07/09 10:19:29;;;;;;;9.18;1.30;;;;;;;29.43;16.56;101153.19;5054671;28;20028;-59
2022/07/09 10:21:58;;;;;;;6.95;1.23;;;;;;;29.19;17.00;101164.91;5054626;28;20036;-60
2022/07/09 10:24:32;;;;;;;6.18;1.00;;;;;;;29.11;17.08;101166.81;5054747;28;20104;-60
2022/07/09 10:27:07;;;;;;;10.18;1.05;;;;;;;28.96;17.93;101173.41;5053345;28;20033;-59
2022/07/09 10:29:56;;;;;;;5.57;1.20;;;;;;;28.70;17.97;101165.81;5054306;28;20045;-59
2022/07/09 10:32:29;;;;;;;12.52;1.85;;;;;;;28.62;17.65;101163.28;5054379;28;20033;-62
2022/07/09 10:35:04;;;;;;;12.60;1.43;;;;;;;28.59;17.87;101165.66;5052032;28;20510;-60
2022/07/09 10:37:42;;;;;;;7.35;1.10;;;;;;;28.52;17.98;101170.31;5035778;28;20037;-61
2022/07/09 10:40:16;;;;;;;13.98;1.30;;;;;;;28.57;17.63;101165.25;5043000;28;20048;-60
2022/07/09 10:42:59;;;;;;;8.73;1.15;;;;;;;28.55;17.81;101176.00;5034462;28;20554;-60
2022/07/09 10:45:27;;;;;;;14.32;1.70;;;;;;;28.61;18.03;101176.47;5034146;28;20041;-60
2022/07/09 10:48:01;;;;;;;31.52;1.92;;;;;;;28.34;18.41;101178.44;5034186;28;20421;-60
2022/07/09 10:50:30;;;;;;;5.27;1.57;;;;;;;28.29;17.70;101184.34;5034264;28;20038;-60
2022/07/09 10:52:58;;;;;;;5.80;1.15;;;;;;;28.26;17.83;101180.31;5034142;28;20356;-60
2022/07/09 10:55:27;;;;;;;7.78;1.23;;;;;;;28.20;17.69;101184.59;5033932;28;20040;-60
2022/07/09 10:57:55;;;;;;;5.60;1.42;;;;;;;28.12;18.27;101182.84;5043183;28;20514;-58
2022/07/09 11:00:24;;;;;;;6.75;1.20;;;;;;;28.18;18.24;101191.69;5053982;28;20439;-59
2022/07/09 11:02:54;;;;;;;9.40;1.60;;;;;;;28.05;18.44;101193.09;5053881;28;20383;-58
2022/07/09 11:05:21;;;;;;;8.15;1.80;;;;;;;27.94;18.60;101193.69;5053666;28;20040;-58
2022/07/09 11:07:59;;;;;;;14.95;2.38;;;;;;;27.81;19.26;101189.47;5053724;28;20021;-59
2022/07/09 11:10:27;;;;;;;16.17;2.60;;;;;;;27.88;19.63;101206.38;5053709;28;20130;-59
2022/07/09 11:12:58;;;;;;;18.65;2.97;;;;;;;27.71;20.19;101206.84;5053644;28;20028;-59
2022/07/09 11:15:28;;;;;;;22.38;3.17;;;;;;;27.69;20.44;101220.38;5053477;28;20025;-59
2022/07/09 11:18:08;;;;;;;14.68;3.13;;;;;;;27.62;21.39;101220.19;5052994;28;20519;-61
2022/07/09 11:20:41;;;;;;;18.95;4.07;;;;;;;27.54;20.82;101216.44;5053563;28;20037;-60
2022/07/09 11:23:12;;;;;;;20.23;4.00;;;;;;;27.56;21.02;101221.66;5053385;28;20115;-60